sensor_id;sensor_type;location;lat;lon;timestamp;P1;durP1;ratioP1;P2;durP2;ratioP2
74102;SDS011;62463;46.166;3.640;2022-08-03T00:00:39;0.10;;;0.10;;
74102;SDS011;62463;46.166;3.640;2022-08-03T00:03:05;0.10;;;0.10;;
74102;SDS011;62463;46.166;3.640;2022-08-03T00:05:31;0.10;;;0.10;;
74102;SDS011;62463;46.166;3.640;2022-08-03T00:07:59;0.00;;;0.00;;
74102;SDS011;62463;46.166;3.640;2022-08-03T00:10:25;0.10;;;0.10;;
74102;SDS011;62463;46.166;3.640;2022-08-03T00:12:51;0.10;;;0.10;;
74102;SDS011;62463;46.166;3.640;2022-08-03T00:15:17;0.10;;;0.10;;
74102;SDS011;62463;46.166;3.640;2022-08-03T00:17:44;0.08;;;0.08;;
74102;SDS011;62463;46.166;3.640;2022-08-03T00:20:10;0.10;;;0.10;;
74102;SDS011;62463;46.166;3.640;2022-08-03T00:22:36;0.10;;;0.10;;
74102;SDS011;62463;46.166;3.640;2022-08-03T00:25:02;0.10;;;0.10;;
74102;SDS011;62463;46.166;3.640;2022-08-03T00:27:29;0.10;;;0.10;;
74102;SDS011;62463;46.166;3.640;2022-08-03T00:29:54;0.10;;;0.10;;
74102;SDS011;62463;46.166;3.640;2022-08-03T00:32:20;0.20;;;0.20;;
74102;SDS011;62463;46.166;3.640;2022-08-03T00:34:46;0.28;;;0.20;;
74102;SDS011;62463;46.166;3.640;2022-08-03T00:37:13;0.10;;;0.10;;
74102;SDS011;62463;46.166;3.640;2022-08-03T00:39:38;0.20;;;0.20;;
74102;SDS011;62463;46.166;3.640;2022-08-03T00:42:06;0.30;;;0.30;;
74102;SDS011;62463;46.166;3.640;2022-08-03T00:44:37;0.15;;;0.15;;
74102;SDS011;62463;46.166;3.640;2022-08-03T00:47:07;0.20;;;0.20;;
74102;SDS011;62463;46.166;3.640;2022-08-03T00:49:37;0.10;;;0.10;;
74102;SDS011;62463;46.166;3.640;2022-08-03T00:52:05;0.20;;;0.20;;
74102;SDS011;62463;46.166;3.640;2022-08-03T00:54:33;0.10;;;0.10;;
74102;SDS011;62463;46.166;3.640;2022-08-03T00:56:59;0.10;;;0.10;;
74102;SDS011;62463;46.166;3.640;2022-08-03T00:59:26;0.05;;;0.05;;
74102;SDS011;62463;46.166;3.640;2022-08-03T01:01:52;0.10;;;0.10;;
74102;SDS011;62463;46.166;3.640;2022-08-03T01:04:18;0.30;;;0.20;;
74102;SDS011;62463;46.166;3.640;2022-08-03T01:09:40;0.10;;;0.10;;
74102;SDS011;62463;46.166;3.640;2022-08-03T01:12:37;0.10;;;0.10;;
74102;SDS011;62463;46.166;3.640;2022-08-03T01:17:58;0.10;;;0.10;;
74102;SDS011;62463;46.166;3.640;2022-08-03T01:20:32;0.10;;;0.10;;
74102;SDS011;62463;46.166;3.640;2022-08-03T01:31:56;0.10;;;0.10;;
74102;SDS011;62463;46.166;3.640;2022-08-03T01:34:27;0.10;;;0.10;;
74102;SDS011;62463;46.166;3.640;2022-08-03T01:36:58;0.10;;;0.10;;
74102;SDS011;62463;46.166;3.640;2022-08-03T01:39:30;0.55;;;0.20;;
74102;SDS011;62463;46.166;3.640;2022-08-03T01:41:59;0.20;;;0.20;;
74102;SDS011;62463;46.166;3.640;2022-08-03T01:44:32;0.20;;;0.20;;
74102;SDS011;62463;46.166;3.640;2022-08-03T01:47:00;0.13;;;0.13;;
74102;SDS011;62463;46.166;3.640;2022-08-03T01:49:27;0.20;;;0.20;;
74102;SDS011;62463;46.166;3.640;2022-08-03T01:51:56;0.13;;;0.13;;
74102;SDS011;62463;46.166;3.640;2022-08-03T01:54:24;0.20;;;0.20;;
74102;SDS011;62463;46.166;3.640;2022-08-03T01:56:52;0.15;;;0.15;;
74102;SDS011;62463;46.166;3.640;2022-08-03T01:59:20;0.20;;;0.20;;
74102;SDS011;62463;46.166;3.640;2022-08-03T02:01:50;0.30;;;0.25;;
74102;SDS011;62463;46.166;3.640;2022-08-03T02:04:18;0.30;;;0.30;;
74102;SDS011;62463;46.166;3.640;2022-08-03T02:06:46;0.20;;;0.20;;
74102;SDS011;62463;46.166;3.640;2022-08-03T02:09:13;0.28;;;0.28;;
74102;SDS011;62463;46.166;3.640;2022-08-03T02:11:41;0.20;;;0.20;;
74102;SDS011;62463;46.166;3.640;2022-08-03T02:14:09;0.20;;;0.20;;
74102;SDS011;62463;46.166;3.640;2022-08-03T02:16:35;0.20;;;0.20;;
74102;SDS011;62463;46.166;3.640;2022-08-03T02:19:03;0.20;;;0.20;;
74102;SDS011;62463;46.166;3.640;2022-08-03T02:21:31;0.20;;;0.20;;
74102;SDS011;62463;46.166;3.640;2022-08-03T02:23:59;0.20;;;0.20;;
74102;SDS011;62463;46.166;3.640;2022-08-03T02:26:27;0.20;;;0.20;;
74102;SDS011;62463;46.166;3.640;2022-08-03T02:28:55;0.20;;;0.20;;
74102;SDS011;62463;46.166;3.640;2022-08-03T02:31:24;0.20;;;0.20;;
74102;SDS011;62463;46.166;3.640;2022-08-03T02:33:56;0.20;;;0.20;;
74102;SDS011;62463;46.166;3.640;2022-08-03T02:36:30;0.20;;;0.20;;
74102;SDS011;62463;46.166;3.640;2022-08-03T02:39:02;0.28;;;0.28;;
74102;SDS011;62463;46.166;3.640;2022-08-03T02:41:34;0.20;;;0.20;;
74102;SDS011;62463;46.166;3.640;2022-08-03T02:44:09;0.20;;;0.20;;
74102;SDS011;62463;46.166;3.640;2022-08-03T02:46:37;0.10;;;0.10;;
74102;SDS011;62463;46.166;3.640;2022-08-03T02:49:05;0.10;;;0.10;;
74102;SDS011;62463;46.166;3.640;2022-08-03T02:51:32;0.10;;;0.10;;
74102;SDS011;62463;46.166;3.640;2022-08-03T02:54:01;0.17;;;0.17;;
74102;SDS011;62463;46.166;3.640;2022-08-03T02:56:28;0.20;;;0.10;;
74102;SDS011;62463;46.166;3.640;2022-08-03T02:58:55;0.10;;;0.10;;
74102;SDS011;62463;46.166;3.640;2022-08-03T03:01:23;0.10;;;0.10;;
74102;SDS011;62463;46.166;3.640;2022-08-03T03:03:52;0.10;;;0.10;;
74102;SDS011;62463;46.166;3.640;2022-08-03T03:06:20;0.10;;;0.10;;
74102;SDS011;62463;46.166;3.640;2022-08-03T03:08:48;0.10;;;0.10;;
74102;SDS011;62463;46.166;3.640;2022-08-03T03:11:14;0.10;;;0.10;;
74102;SDS011;62463;46.166;3.640;2022-08-03T03:13:43;0.10;;;0.10;;
74102;SDS011;62463;46.166;3.640;2022-08-03T03:16:11;0.13;;;0.13;;
74102;SDS011;62463;46.166;3.640;2022-08-03T03:18:38;0.20;;;0.20;;
74102;SDS011;62463;46.166;3.640;2022-08-03T03:21:08;0.10;;;0.10;;
74102;SDS011;62463;46.166;3.640;2022-08-03T03:23:35;0.10;;;0.10;;
74102;SDS011;62463;46.166;3.640;2022-08-03T03:26:02;0.00;;;0.00;;
74102;SDS011;62463;46.166;3.640;2022-08-03T03:28:29;0.10;;;0.10;;
74102;SDS011;62463;46.166;3.640;2022-08-03T03:30:56;0.10;;;0.10;;
74102;SDS011;62463;46.166;3.640;2022-08-03T03:33:23;0.10;;;0.10;;
74102;SDS011;62463;46.166;3.640;2022-08-03T03:35:49;0.10;;;0.10;;
74102;SDS011;62463;46.166;3.640;2022-08-03T03:38:16;0.10;;;0.10;;
74102;SDS011;62463;46.166;3.640;2022-08-03T03:40:43;0.03;;;0.03;;
74102;SDS011;62463;46.166;3.640;2022-08-03T03:43:09;0.10;;;0.10;;
74102;SDS011;62463;46.166;3.640;2022-08-03T03:45:36;0.10;;;0.10;;
74102;SDS011;62463;46.166;3.640;2022-08-03T03:48:05;0.10;;;0.10;;
74102;SDS011;62463;46.166;3.640;2022-08-03T03:50:32;0.15;;;0.15;;
74102;SDS011;62463;46.166;3.640;2022-08-03T03:52:59;0.13;;;0.13;;
74102;SDS011;62463;46.166;3.640;2022-08-03T03:55:26;0.20;;;0.20;;
74102;SDS011;62463;46.166;3.640;2022-08-03T03:57:53;0.13;;;0.13;;
74102;SDS011;62463;46.166;3.640;2022-08-03T04:00:19;0.20;;;0.20;;
74102;SDS011;62463;46.166;3.640;2022-08-03T04:02:45;0.20;;;0.20;;
74102;SDS011;62463;46.166;3.640;2022-08-03T04:05:11;0.28;;;0.28;;
74102;SDS011;62463;46.166;3.640;2022-08-03T04:08:00;0.20;;;0.20;;
74102;SDS011;62463;46.166;3.640;2022-08-03T04:13:54;0.20;;;0.20;;
74102;SDS011;62463;46.166;3.640;2022-08-03T04:16:24;0.10;;;0.10;;
74102;SDS011;62463;46.166;3.640;2022-08-03T04:18:54;0.15;;;0.15;;
74102;SDS011;62463;46.166;3.640;2022-08-03T04:21:25;0.20;;;0.20;;
74102;SDS011;62463;46.166;3.640;2022-08-03T04:23:54;0.30;;;0.30;;
74102;SDS011;62463;46.166;3.640;2022-08-03T04:26:25;0.30;;;0.30;;
74102;SDS011;62463;46.166;3.640;2022-08-03T04:28:54;0.20;;;0.20;;
74102;SDS011;62463;46.166;3.640;2022-08-03T04:31:21;0.20;;;0.20;;
74102;SDS011;62463;46.166;3.640;2022-08-03T04:33:49;0.20;;;0.20;;
74102;SDS011;62463;46.166;3.640;2022-08-03T04:36:18;0.15;;;0.15;;
74102;SDS011;62463;46.166;3.640;2022-08-03T04:39:13;0.10;;;0.10;;
74102;SDS011;62463;46.166;3.640;2022-08-03T04:41:43;0.10;;;0.10;;
74102;SDS011;62463;46.166;3.640;2022-08-03T04:44:10;0.13;;;0.13;;
74102;SDS011;62463;46.166;3.640;2022-08-03T04:46:38;0.30;;;0.30;;
74102;SDS011;62463;46.166;3.640;2022-08-03T04:49:06;0.30;;;0.30;;
74102;SDS011;62463;46.166;3.640;2022-08-03T04:51:32;0.30;;;0.30;;
74102;SDS011;62463;46.166;3.640;2022-08-03T04:53:59;0.20;;;0.20;;
74102;SDS011;62463;46.166;3.640;2022-08-03T04:56:26;0.20;;;0.20;;
74102;SDS011;62463;46.166;3.640;2022-08-03T04:58:51;0.20;;;0.20;;
74102;SDS011;62463;46.166;3.640;2022-08-03T05:01:17;0.22;;;0.22;;
74102;SDS011;62463;46.166;3.640;2022-08-03T05:03:45;0.20;;;0.20;;
74102;SDS011;62463;46.166;3.640;2022-08-03T05:06:11;0.10;;;0.10;;
74102;SDS011;62463;46.166;3.640;2022-08-03T05:08:37;0.15;;;0.15;;
74102;SDS011;62463;46.166;3.640;2022-08-03T05:11:03;0.35;;;0.10;;
74102;SDS011;62463;46.166;3.640;2022-08-03T05:13:29;0.22;;;0.22;;
74102;SDS011;62463;46.166;3.640;2022-08-03T05:15:55;0.10;;;0.10;;
74102;SDS011;62463;46.166;3.640;2022-08-03T05:18:21;0.20;;;0.20;;
74102;SDS011;62463;46.166;3.640;2022-08-03T05:20:47;0.25;;;0.25;;
74102;SDS011;62463;46.166;3.640;2022-08-03T05:23:13;0.30;;;0.30;;
74102;SDS011;62463;46.166;3.640;2022-08-03T05:25:38;0.57;;;0.47;;
74102;SDS011;62463;46.166;3.640;2022-08-03T05:28:04;0.30;;;0.30;;
74102;SDS011;62463;46.166;3.640;2022-08-03T05:30:30;0.30;;;0.30;;
74102;SDS011;62463;46.166;3.640;2022-08-03T05:32:55;0.20;;;0.20;;
74102;SDS011;62463;46.166;3.640;2022-08-03T05:35:21;0.30;;;0.30;;
74102;SDS011;62463;46.166;3.640;2022-08-03T05:37:49;0.30;;;0.30;;
74102;SDS011;62463;46.166;3.640;2022-08-03T05:40:15;0.20;;;0.20;;
74102;SDS011;62463;46.166;3.640;2022-08-03T05:42:41;0.10;;;0.10;;
74102;SDS011;62463;46.166;3.640;2022-08-03T05:45:07;0.10;;;0.10;;
74102;SDS011;62463;46.166;3.640;2022-08-03T05:47:40;0.10;;;0.10;;
74102;SDS011;62463;46.166;3.640;2022-08-03T05:50:09;0.20;;;0.20;;
74102;SDS011;62463;46.166;3.640;2022-08-03T05:52:36;0.10;;;0.10;;
74102;SDS011;62463;46.166;3.640;2022-08-03T05:55:03;0.20;;;0.20;;
74102;SDS011;62463;46.166;3.640;2022-08-03T05:57:30;0.10;;;0.10;;
74102;SDS011;62463;46.166;3.640;2022-08-03T05:59:56;0.10;;;0.10;;
74102;SDS011;62463;46.166;3.640;2022-08-03T06:02:22;0.20;;;0.20;;
74102;SDS011;62463;46.166;3.640;2022-08-03T06:04:47;0.20;;;0.20;;
74102;SDS011;62463;46.166;3.640;2022-08-03T06:07:13;0.10;;;0.10;;
74102;SDS011;62463;46.166;3.640;2022-08-03T06:09:39;0.30;;;0.30;;
74102;SDS011;62463;46.166;3.640;2022-08-03T06:12:06;0.30;;;0.30;;
74102;SDS011;62463;46.166;3.640;2022-08-03T06:14:32;0.30;;;0.30;;
74102;SDS011;62463;46.166;3.640;2022-08-03T06:16:57;0.30;;;0.30;;
74102;SDS011;62463;46.166;3.640;2022-08-03T06:19:23;0.40;;;0.32;;
74102;SDS011;62463;46.166;3.640;2022-08-03T06:21:49;0.63;;;0.60;;
74102;SDS011;62463;46.166;3.640;2022-08-03T06:24:15;2.40;;;2.05;;
74102;SDS011;62463;46.166;3.640;2022-08-03T06:26:41;2.67;;;2.10;;
74102;SDS011;62463;46.166;3.640;2022-08-03T06:29:06;1.88;;;1.50;;
74102;SDS011;62463;46.166;3.640;2022-08-03T06:31:32;1.50;;;1.40;;
74102;SDS011;62463;46.166;3.640;2022-08-03T06:33:58;1.10;;;1.00;;
74102;SDS011;62463;46.166;3.640;2022-08-03T06:36:24;1.60;;;1.30;;
74102;SDS011;62463;46.166;3.640;2022-08-03T06:38:56;1.60;;;1.40;;
74102;SDS011;62463;46.166;3.640;2022-08-03T06:41:25;1.52;;;1.33;;
74102;SDS011;62463;46.166;3.640;2022-08-03T06:43:51;1.33;;;1.10;;
74102;SDS011;62463;46.166;3.640;2022-08-03T06:46:18;1.52;;;1.15;;
74102;SDS011;62463;46.166;3.640;2022-08-03T06:48:44;1.40;;;1.20;;
74102;SDS011;62463;46.166;3.640;2022-08-03T06:51:10;2.03;;;1.50;;
74102;SDS011;62463;46.166;3.640;2022-08-03T06:53:36;1.48;;;1.33;;
74102;SDS011;62463;46.166;3.640;2022-08-03T06:56:03;1.15;;;1.05;;
74102;SDS011;62463;46.166;3.640;2022-08-03T06:58:29;1.33;;;1.10;;
74102;SDS011;62463;46.166;3.640;2022-08-03T07:00:55;1.33;;;1.10;;
74102;SDS011;62463;46.166;3.640;2022-08-03T07:03:21;1.23;;;1.08;;
74102;SDS011;62463;46.166;3.640;2022-08-03T07:05:46;2.00;;;1.50;;
74102;SDS011;62463;46.166;3.640;2022-08-03T07:08:13;1.73;;;1.23;;
74102;SDS011;62463;46.166;3.640;2022-08-03T07:10:39;1.25;;;1.05;;
74102;SDS011;62463;46.166;3.640;2022-08-03T07:13:05;1.20;;;1.10;;
74102;SDS011;62463;46.166;3.640;2022-08-03T07:15:31;0.85;;;0.85;;
74102;SDS011;62463;46.166;3.640;2022-08-03T07:17:57;1.00;;;0.90;;
74102;SDS011;62463;46.166;3.640;2022-08-03T07:20:23;0.70;;;0.70;;
74102;SDS011;62463;46.166;3.640;2022-08-03T07:22:48;1.20;;;0.90;;
74102;SDS011;62463;46.166;3.640;2022-08-03T07:25:14;0.80;;;0.80;;
74102;SDS011;62463;46.166;3.640;2022-08-03T07:27:44;0.70;;;0.70;;
74102;SDS011;62463;46.166;3.640;2022-08-03T07:30:10;0.88;;;0.88;;
74102;SDS011;62463;46.166;3.640;2022-08-03T07:32:38;0.60;;;0.60;;
74102;SDS011;62463;46.166;3.640;2022-08-03T07:35:04;0.60;;;0.60;;
74102;SDS011;62463;46.166;3.640;2022-08-03T07:37:31;0.60;;;0.60;;
74102;SDS011;62463;46.166;3.640;2022-08-03T07:39:57;0.60;;;0.60;;
74102;SDS011;62463;46.166;3.640;2022-08-03T07:42:24;0.68;;;0.68;;
74102;SDS011;62463;46.166;3.640;2022-08-03T07:44:51;0.80;;;0.80;;
74102;SDS011;62463;46.166;3.640;2022-08-03T07:47:20;1.25;;;0.60;;
74102;SDS011;62463;46.166;3.640;2022-08-03T07:49:53;0.57;;;0.57;;
74102;SDS011;62463;46.166;3.640;2022-08-03T07:52:19;0.68;;;0.60;;
74102;SDS011;62463;46.166;3.640;2022-08-03T07:55:04;0.52;;;0.50;;
74102;SDS011;62463;46.166;3.640;2022-08-03T07:57:31;0.70;;;0.70;;
74102;SDS011;62463;46.166;3.640;2022-08-03T07:59:57;0.80;;;0.80;;
74102;SDS011;62463;46.166;3.640;2022-08-03T08:02:24;1.20;;;0.80;;
74102;SDS011;62463;46.166;3.640;2022-08-03T08:04:50;0.77;;;0.77;;
74102;SDS011;62463;46.166;3.640;2022-08-03T08:07:16;0.60;;;0.60;;
74102;SDS011;62463;46.166;3.640;2022-08-03T08:09:42;1.00;;;0.80;;
74102;SDS011;62463;46.166;3.640;2022-08-03T08:12:07;0.70;;;0.70;;
74102;SDS011;62463;46.166;3.640;2022-08-03T08:14:35;0.60;;;0.60;;
74102;SDS011;62463;46.166;3.640;2022-08-03T08:17:01;0.80;;;0.80;;
74102;SDS011;62463;46.166;3.640;2022-08-03T08:19:27;1.42;;;1.13;;
74102;SDS011;62463;46.166;3.640;2022-08-03T08:21:52;0.70;;;0.60;;
74102;SDS011;62463;46.166;3.640;2022-08-03T08:24:18;1.52;;;0.82;;
74102;SDS011;62463;46.166;3.640;2022-08-03T08:26:44;1.27;;;0.90;;
74102;SDS011;62463;46.166;3.640;2022-08-03T08:29:09;1.33;;;0.70;;
74102;SDS011;62463;46.166;3.640;2022-08-03T08:31:35;0.80;;;0.80;;
74102;SDS011;62463;46.166;3.640;2022-08-03T08:34:01;1.02;;;0.70;;
74102;SDS011;62463;46.166;3.640;2022-08-03T08:36:32;0.88;;;0.88;;
74102;SDS011;62463;46.166;3.640;2022-08-03T08:38:58;0.77;;;0.77;;
74102;SDS011;62463;46.166;3.640;2022-08-03T08:41:25;0.95;;;0.88;;
74102;SDS011;62463;46.166;3.640;2022-08-03T08:43:51;0.75;;;0.70;;
74102;SDS011;62463;46.166;3.640;2022-08-03T08:46:18;0.70;;;0.70;;
74102;SDS011;62463;46.166;3.640;2022-08-03T08:48:45;0.70;;;0.70;;
74102;SDS011;62463;46.166;3.640;2022-08-03T08:51:13;0.73;;;0.73;;
74102;SDS011;62463;46.166;3.640;2022-08-03T08:53:44;0.82;;;0.80;;
74102;SDS011;62463;46.166;3.640;2022-08-03T08:56:15;0.93;;;0.90;;
74102;SDS011;62463;46.166;3.640;2022-08-03T08:58:46;0.90;;;0.90;;
74102;SDS011;62463;46.166;3.640;2022-08-03T09:01:18;1.05;;;0.80;;
74102;SDS011;62463;46.166;3.640;2022-08-03T09:03:45;0.90;;;0.90;;
74102;SDS011;62463;46.166;3.640;2022-08-03T09:06:11;1.23;;;1.05;;
74102;SDS011;62463;46.166;3.640;2022-08-03T09:08:37;1.15;;;1.05;;
74102;SDS011;62463;46.166;3.640;2022-08-03T09:11:03;2.08;;;0.90;;
74102;SDS011;62463;46.166;3.640;2022-08-03T09:13:29;0.75;;;0.75;;
74102;SDS011;62463;46.166;3.640;2022-08-03T09:18:43;1.58;;;1.10;;
74102;SDS011;62463;46.166;3.640;2022-08-03T09:23:51;0.80;;;0.55;;
74102;SDS011;62463;46.166;3.640;2022-08-03T09:26:19;0.80;;;0.73;;
74102;SDS011;62463;46.166;3.640;2022-08-03T09:31:33;1.10;;;0.98;;
74102;SDS011;62463;46.166;3.640;2022-08-03T09:34:04;0.70;;;0.70;;
74102;SDS011;62463;46.166;3.640;2022-08-03T09:36:35;0.88;;;0.88;;
74102;SDS011;62463;46.166;3.640;2022-08-03T09:39:12;0.60;;;0.60;;
74102;SDS011;62463;46.166;3.640;2022-08-03T09:41:40;1.40;;;0.55;;
74102;SDS011;62463;46.166;3.640;2022-08-03T09:44:13;0.55;;;0.50;;
74102;SDS011;62463;46.166;3.640;2022-08-03T09:46:49;0.85;;;0.65;;
74102;SDS011;62463;46.166;3.640;2022-08-03T09:49:16;1.40;;;0.98;;
74102;SDS011;62463;46.166;3.640;2022-08-03T09:51:42;1.23;;;0.90;;
74102;SDS011;62463;46.166;3.640;2022-08-03T09:54:09;0.75;;;0.60;;
74102;SDS011;62463;46.166;3.640;2022-08-03T09:56:42;1.10;;;0.80;;
74102;SDS011;62463;46.166;3.640;2022-08-03T09:59:09;0.85;;;0.85;;
74102;SDS011;62463;46.166;3.640;2022-08-03T10:01:47;1.50;;;1.00;;
74102;SDS011;62463;46.166;3.640;2022-08-03T10:04:13;0.80;;;0.80;;
74102;SDS011;62463;46.166;3.640;2022-08-03T10:06:44;1.42;;;0.80;;
74102;SDS011;62463;46.166;3.640;2022-08-03T10:09:25;1.00;;;0.90;;
74102;SDS011;62463;46.166;3.640;2022-08-03T10:11:51;0.98;;;0.80;;
74102;SDS011;62463;46.166;3.640;2022-08-03T10:14:17;0.60;;;0.60;;
74102;SDS011;62463;46.166;3.640;2022-08-03T10:16:44;0.50;;;0.50;;
74102;SDS011;62463;46.166;3.640;2022-08-03T10:19:11;0.60;;;0.60;;
74102;SDS011;62463;46.166;3.640;2022-08-03T10:21:39;1.77;;;0.75;;
74102;SDS011;62463;46.166;3.640;2022-08-03T10:24:14;0.60;;;0.60;;
74102;SDS011;62463;46.166;3.640;2022-08-03T10:26:45;0.80;;;0.80;;
74102;SDS011;62463;46.166;3.640;2022-08-03T10:29:13;1.17;;;0.80;;
74102;SDS011;62463;46.166;3.640;2022-08-03T10:31:45;1.02;;;0.90;;
74102;SDS011;62463;46.166;3.640;2022-08-03T10:34:33;1.10;;;1.00;;
74102;SDS011;62463;46.166;3.640;2022-08-03T10:37:02;0.85;;;0.77;;
74102;SDS011;62463;46.166;3.640;2022-08-03T10:39:34;0.70;;;0.70;;
74102;SDS011;62463;46.166;3.640;2022-08-03T10:42:00;0.93;;;0.80;;
74102;SDS011;62463;46.166;3.640;2022-08-03T10:44:32;0.95;;;0.70;;
74102;SDS011;62463;46.166;3.640;2022-08-03T10:47:04;0.88;;;0.88;;
74102;SDS011;62463;46.166;3.640;2022-08-03T10:49:30;0.60;;;0.60;;
74102;SDS011;62463;46.166;3.640;2022-08-03T10:51:57;0.88;;;0.80;;
74102;SDS011;62463;46.166;3.640;2022-08-03T11:00:13;0.70;;;0.70;;
74102;SDS011;62463;46.166;3.640;2022-08-03T11:05:32;1.10;;;1.00;;
74102;SDS011;62463;46.166;3.640;2022-08-03T11:10:51;0.77;;;0.77;;
74102;SDS011;62463;46.166;3.640;2022-08-03T11:13:20;1.27;;;0.70;;
74102;SDS011;62463;46.166;3.640;2022-08-03T11:15:49;0.60;;;0.60;;
74102;SDS011;62463;46.166;3.640;2022-08-03T11:18:18;0.70;;;0.63;;
74102;SDS011;62463;46.166;3.640;2022-08-03T11:20:51;0.60;;;0.60;;
74102;SDS011;62463;46.166;3.640;2022-08-03T11:23:38;0.50;;;0.50;;
74102;SDS011;62463;46.166;3.640;2022-08-03T11:28:42;1.15;;;0.77;;
74102;SDS011;62463;46.166;3.640;2022-08-03T11:39:38;0.50;;;0.50;;
74102;SDS011;62463;46.166;3.640;2022-08-03T11:44:51;0.70;;;0.70;;
74102;SDS011;62463;46.166;3.640;2022-08-03T11:47:22;1.05;;;0.80;;
74102;SDS011;62463;46.166;3.640;2022-08-03T11:49:53;1.20;;;0.70;;
74102;SDS011;62463;46.166;3.640;2022-08-03T11:52:21;0.70;;;0.70;;
74102;SDS011;62463;46.166;3.640;2022-08-03T11:54:51;0.60;;;0.60;;
74102;SDS011;62463;46.166;3.640;2022-08-03T11:57:33;0.63;;;0.63;;
74102;SDS011;62463;46.166;3.640;2022-08-03T11:59:59;0.60;;;0.60;;
74102;SDS011;62463;46.166;3.640;2022-08-03T12:02:25;0.55;;;0.55;;
74102;SDS011;62463;46.166;3.640;2022-08-03T12:04:58;0.68;;;0.68;;
74102;SDS011;62463;46.166;3.640;2022-08-03T12:07:28;0.70;;;0.70;;
74102;SDS011;62463;46.166;3.640;2022-08-03T12:10:08;2.33;;;0.90;;
74102;SDS011;62463;46.166;3.640;2022-08-03T12:12:36;0.98;;;0.90;;
74102;SDS011;62463;46.166;3.640;2022-08-03T12:15:02;0.80;;;0.80;;
74102;SDS011;62463;46.166;3.640;2022-08-03T12:17:36;0.63;;;0.63;;
74102;SDS011;62463;46.166;3.640;2022-08-03T12:20:04;0.70;;;0.70;;
74102;SDS011;62463;46.166;3.640;2022-08-03T12:22:34;0.50;;;0.50;;
74102;SDS011;62463;46.166;3.640;2022-08-03T12:25:06;0.40;;;0.40;;
74102;SDS011;62463;46.166;3.640;2022-08-03T12:27:33;0.50;;;0.50;;
74102;SDS011;62463;46.166;3.640;2022-08-03T12:29:59;0.60;;;0.40;;
74102;SDS011;62463;46.166;3.640;2022-08-03T12:32:26;0.60;;;0.60;;
74102;SDS011;62463;46.166;3.640;2022-08-03T12:34:55;0.90;;;0.90;;
74102;SDS011;62463;46.166;3.640;2022-08-03T12:37:30;1.08;;;1.00;;
74102;SDS011;62463;46.166;3.640;2022-08-03T12:39:57;2.15;;;0.90;;
74102;SDS011;62463;46.166;3.640;2022-08-03T12:42:29;1.10;;;0.90;;
74102;SDS011;62463;46.166;3.640;2022-08-03T12:44:58;1.00;;;0.90;;
74102;SDS011;62463;46.166;3.640;2022-08-03T12:47:24;0.70;;;0.70;;
74102;SDS011;62463;46.166;3.640;2022-08-03T12:49:51;0.50;;;0.50;;
74102;SDS011;62463;46.166;3.640;2022-08-03T12:52:18;0.80;;;0.80;;
74102;SDS011;62463;46.166;3.640;2022-08-03T12:54:58;0.57;;;0.57;;
74102;SDS011;62463;46.166;3.640;2022-08-03T12:57:38;0.80;;;0.80;;
74102;SDS011;62463;46.166;3.640;2022-08-03T13:00:15;0.77;;;0.77;;
74102;SDS011;62463;46.166;3.640;2022-08-03T13:02:42;0.90;;;0.90;;
74102;SDS011;62463;46.166;3.640;2022-08-03T13:05:09;1.75;;;0.90;;
74102;SDS011;62463;46.166;3.640;2022-08-03T13:07:41;1.67;;;0.80;;
74102;SDS011;62463;46.166;3.640;2022-08-03T13:10:09;1.67;;;1.10;;
74102;SDS011;62463;46.166;3.640;2022-08-03T13:12:47;0.98;;;0.90;;
74102;SDS011;62463;46.166;3.640;2022-08-03T13:15:14;1.65;;;1.00;;
74102;SDS011;62463;46.166;3.640;2022-08-03T13:17:40;1.00;;;0.93;;
74102;SDS011;62463;46.166;3.640;2022-08-03T13:20:06;0.50;;;0.50;;
74102;SDS011;62463;46.166;3.640;2022-08-03T13:22:32;0.70;;;0.70;;
74102;SDS011;62463;46.166;3.640;2022-08-03T13:24:58;0.60;;;0.60;;
74102;SDS011;62463;46.166;3.640;2022-08-03T13:27:28;0.50;;;0.50;;
74102;SDS011;62463;46.166;3.640;2022-08-03T13:29:55;0.40;;;0.40;;
74102;SDS011;62463;46.166;3.640;2022-08-03T13:32:21;0.40;;;0.40;;
74102;SDS011;62463;46.166;3.640;2022-08-03T13:34:48;0.38;;;0.38;;
74102;SDS011;62463;46.166;3.640;2022-08-03T13:37:14;0.52;;;0.50;;
74102;SDS011;62463;46.166;3.640;2022-08-03T13:39:41;1.02;;;0.70;;
74102;SDS011;62463;46.166;3.640;2022-08-03T13:42:07;0.60;;;0.60;;
74102;SDS011;62463;46.166;3.640;2022-08-03T13:44:33;0.40;;;0.40;;
74102;SDS011;62463;46.166;3.640;2022-08-03T13:47:01;0.50;;;0.50;;
74102;SDS011;62463;46.166;3.640;2022-08-03T13:49:28;0.30;;;0.30;;
74102;SDS011;62463;46.166;3.640;2022-08-03T13:51:57;0.40;;;0.40;;
74102;SDS011;62463;46.166;3.640;2022-08-03T13:54:23;0.30;;;0.30;;
74102;SDS011;62463;46.166;3.640;2022-08-03T13:56:49;0.30;;;0.30;;
74102;SDS011;62463;46.166;3.640;2022-08-03T13:59:21;0.30;;;0.30;;
74102;SDS011;62463;46.166;3.640;2022-08-03T14:01:49;0.30;;;0.30;;
74102;SDS011;62463;46.166;3.640;2022-08-03T14:04:16;0.30;;;0.30;;
74102;SDS011;62463;46.166;3.640;2022-08-03T14:06:42;0.30;;;0.30;;
74102;SDS011;62463;46.166;3.640;2022-08-03T14:09:11;0.70;;;0.55;;
74102;SDS011;62463;46.166;3.640;2022-08-03T14:11:38;0.55;;;0.52;;
74102;SDS011;62463;46.166;3.640;2022-08-03T14:14:04;0.57;;;0.57;;
74102;SDS011;62463;46.166;3.640;2022-08-03T14:16:30;0.50;;;0.40;;
74102;SDS011;62463;46.166;3.640;2022-08-03T14:18:56;0.32;;;0.30;;
74102;SDS011;62463;46.166;3.640;2022-08-03T14:21:21;0.38;;;0.38;;
74102;SDS011;62463;46.166;3.640;2022-08-03T14:23:47;0.40;;;0.40;;
74102;SDS011;62463;46.166;3.640;2022-08-03T14:26:13;0.30;;;0.30;;
74102;SDS011;62463;46.166;3.640;2022-08-03T14:28:39;0.30;;;0.30;;
74102;SDS011;62463;46.166;3.640;2022-08-03T14:31:05;0.57;;;0.47;;
74102;SDS011;62463;46.166;3.640;2022-08-03T14:33:32;0.68;;;0.68;;
74102;SDS011;62463;46.166;3.640;2022-08-03T14:35:58;0.50;;;0.50;;
74102;SDS011;62463;46.166;3.640;2022-08-03T14:38:23;0.50;;;0.50;;
74102;SDS011;62463;46.166;3.640;2022-08-03T14:40:49;0.40;;;0.40;;
74102;SDS011;62463;46.166;3.640;2022-08-03T14:43:16;0.47;;;0.47;;
74102;SDS011;62463;46.166;3.640;2022-08-03T14:45:45;0.60;;;0.60;;
74102;SDS011;62463;46.166;3.640;2022-08-03T14:48:12;0.65;;;0.63;;
74102;SDS011;62463;46.166;3.640;2022-08-03T14:50:38;0.52;;;0.52;;
74102;SDS011;62463;46.166;3.640;2022-08-03T14:53:04;0.40;;;0.40;;
74102;SDS011;62463;46.166;3.640;2022-08-03T14:55:29;0.40;;;0.40;;
74102;SDS011;62463;46.166;3.640;2022-08-03T14:57:57;0.40;;;0.40;;
74102;SDS011;62463;46.166;3.640;2022-08-03T15:00:26;0.40;;;0.40;;
74102;SDS011;62463;46.166;3.640;2022-08-03T15:02:52;0.50;;;0.50;;
74102;SDS011;62463;46.166;3.640;2022-08-03T15:05:17;0.50;;;0.50;;
74102;SDS011;62463;46.166;3.640;2022-08-03T15:07:43;0.60;;;0.60;;
74102;SDS011;62463;46.166;3.640;2022-08-03T15:10:09;0.40;;;0.40;;
74102;SDS011;62463;46.166;3.640;2022-08-03T15:12:34;0.50;;;0.50;;
74102;SDS011;62463;46.166;3.640;2022-08-03T15:15:00;0.60;;;0.60;;
74102;SDS011;62463;46.166;3.640;2022-08-03T15:17:26;0.70;;;0.60;;
74102;SDS011;62463;46.166;3.640;2022-08-03T15:19:52;0.65;;;0.60;;
74102;SDS011;62463;46.166;3.640;2022-08-03T15:22:18;1.40;;;0.60;;
74102;SDS011;62463;46.166;3.640;2022-08-03T15:24:44;0.88;;;0.80;;
74102;SDS011;62463;46.166;3.640;2022-08-03T15:27:09;0.88;;;0.80;;
74102;SDS011;62463;46.166;3.640;2022-08-03T15:29:35;0.55;;;0.55;;
74102;SDS011;62463;46.166;3.640;2022-08-03T15:32:01;0.70;;;0.70;;
74102;SDS011;62463;46.166;3.640;2022-08-03T15:34:26;1.67;;;0.70;;
74102;SDS011;62463;46.166;3.640;2022-08-03T15:36:52;0.60;;;0.60;;
74102;SDS011;62463;46.166;3.640;2022-08-03T15:39:18;0.60;;;0.60;;
74102;SDS011;62463;46.166;3.640;2022-08-03T15:41:43;0.60;;;0.60;;
74102;SDS011;62463;46.166;3.640;2022-08-03T15:44:09;0.60;;;0.60;;